BAW1B EGLL-KBOS
Flight info
| Callsign | BAW1B |
|---|---|
| Flight time | 6h 17m |
| Altitude | 38000 |
| Route | CPT L9 BUCGO DCT FELCA DCT OFSOX DCT SLANY DCT MALOT/M083F390 NATD RIKAL/N0488F400 N572A TOPPS DCT AJJAY OOSHN5 |
| Aircraft | A388/J-SADE2E3FGHIJ3J4J5M1RWXY/LB1D1 |
Departure
| Time | 2026-05-04 16:28 |
|---|---|
| Airport | London Heathrow Airport (EGLL) |
Arrival
| Time | 2026-05-04 22:45 |
|---|---|
| Airport | Boston Logan International Airport (KBOS) |
| Time | Latitude | Longitude | Altitude | Speed | Heading |
|---|---|---|---|---|---|
| 2026-05-04 16:00 | 51.47221 | -0.47733 | 91 ft | 0 kts | 89° |
| 2026-05-04 16:13 | 51.47221 | -0.47766 | 94 ft | 3 kts | 89° |
| 2026-05-04 16:13 | 51.47220 | -0.47829 | 92 ft | 3 kts | 83° |
| 2026-05-04 16:14 | 51.47200 | -0.47870 | 93 ft | 2 kts | 4° |
| 2026-05-04 16:14 | 51.47169 | -0.47870 | 92 ft | 3 kts | 359° |
| 2026-05-04 16:15 | 51.47157 | -0.47870 | 91 ft | 1 kts | 359° |
| 2026-05-04 16:19 | 51.47222 | -0.47871 | 93 ft | 9 kts | 359° |
| 2026-05-04 16:19 | 51.47374 | -0.47873 | 94 ft | 15 kts | 360° |
| 2026-05-04 16:20 | 51.47490 | -0.47640 | 93 ft | 16 kts | 89° |
| 2026-05-04 16:20 | 51.47492 | -0.47261 | 91 ft | 18 kts | 89° |
| 2026-05-04 16:21 | 51.47512 | -0.46713 | 95 ft | 10 kts | 80° |
| 2026-05-04 16:22 | 51.47517 | -0.46356 | 91 ft | 18 kts | 89° |
| 2026-05-04 16:22 | 51.47512 | -0.45738 | 95 ft | 19 kts | 96° |
| 2026-05-04 16:23 | 51.47510 | -0.45086 | 95 ft | 20 kts | 90° |
| 2026-05-04 16:24 | 51.47505 | -0.44107 | 94 ft | 20 kts | 90° |
| 2026-05-04 16:25 | 51.47459 | -0.43728 | 92 ft | 15 kts | 109° |
| 2026-05-04 16:26 | 51.47673 | -0.43422 | 95 ft | 10 kts | 359° |
| 2026-05-04 16:26 | 51.47767 | -0.43507 | 96 ft | 5 kts | 271° |
| 2026-05-04 16:27 | 51.47764 | -0.45025 | 97 ft | 134 kts | 269° |
| 2026-05-04 16:28 | 51.47733 | -0.50614 | 1107 ft | 174 kts | 271° |
| 2026-05-04 16:28 | 51.47197 | -0.56748 | 2440 ft | 211 kts | 256° |
| 2026-05-04 16:29 | 51.45617 | -0.66733 | 4997 ft | 236 kts | 261° |
| 2026-05-04 16:30 | 51.45363 | -0.75439 | 6320 ft | 275 kts | 269° |
| 2026-05-04 16:31 | 51.45333 | -0.81544 | 8010 ft | 275 kts | 268° |
| 2026-05-04 16:31 | 51.45591 | -0.90827 | 10095 ft | 286 kts | 279° |
| 2026-05-04 16:32 | 51.47331 | -1.00880 | 10939 ft | 338 kts | 298° |
| 2026-05-04 16:33 | 51.49632 | -1.07535 | 12257 ft | 344 kts | 297° |
| 2026-05-04 16:33 | 51.51934 | -1.14263 | 13588 ft | 349 kts | 297° |
| 2026-05-04 16:34 | 51.54294 | -1.21136 | 14725 ft | 356 kts | 297° |
| 2026-05-04 16:34 | 51.55497 | -1.24646 | 15286 ft | 360 kts | 297° |
| 2026-05-04 16:35 | 51.59167 | -1.35368 | 16943 ft | 370 kts | 297° |
| 2026-05-04 16:35 | 51.62917 | -1.46376 | 18463 ft | 381 kts | 297° |
| 2026-05-04 16:36 | 51.64194 | -1.50138 | 18912 ft | 384 kts | 297° |
| 2026-05-04 16:36 | 51.66768 | -1.57728 | 19944 ft | 389 kts | 297° |
| 2026-05-04 16:37 | 51.69325 | -1.65438 | 20906 ft | 391 kts | 292° |
| 2026-05-04 16:37 | 51.70265 | -1.69548 | 21365 ft | 392 kts | 284° |
| 2026-05-04 16:37 | 51.71120 | -1.78212 | 22266 ft | 393 kts | 274° |
| 2026-05-04 16:38 | 51.71749 | -1.86958 | 23164 ft | 398 kts | 275° |
| 2026-05-04 16:39 | 51.72716 | -2.00382 | 24244 ft | 407 kts | 274° |
| 2026-05-04 16:39 | 51.73356 | -2.09498 | 24998 ft | 411 kts | 274° |
| 2026-05-04 16:40 | 51.73991 | -2.18647 | 25758 ft | 416 kts | 274° |
| 2026-05-04 16:40 | 51.74630 | -2.27977 | 26562 ft | 421 kts | 274° |
| 2026-05-04 16:41 | 51.75271 | -2.37424 | 27404 ft | 426 kts | 274° |
| 2026-05-04 16:41 | 51.76235 | -2.51899 | 28559 ft | 439 kts | 274° |
| 2026-05-04 16:42 | 51.77203 | -2.66660 | 29867 ft | 448 kts | 274° |
| 2026-05-04 16:43 | 51.77850 | -2.76723 | 30597 ft | 455 kts | 275° |
| 2026-05-04 16:43 | 51.78503 | -2.87011 | 31242 ft | 464 kts | 275° |
| 2026-05-04 16:43 | 51.78830 | -2.92205 | 31642 ft | 466 kts | 275° |
| 2026-05-04 16:44 | 51.80135 | -3.13347 | 32934 ft | 481 kts | 275° |
| 2026-05-04 16:45 | 51.80788 | -3.24172 | 33620 ft | 487 kts | 275° |
| 2026-05-04 16:46 | 51.81758 | -3.40578 | 34583 ft | 495 kts | 275° |
| 2026-05-04 16:46 | 51.82402 | -3.51700 | 35330 ft | 498 kts | 275° |
| 2026-05-04 16:47 | 51.83663 | -3.62681 | 36260 ft | 497 kts | 282° |
| 2026-05-04 16:47 | 51.85088 | -3.73585 | 37144 ft | 495 kts | 281° |
| 2026-05-04 16:48 | 51.87177 | -3.89893 | 38012 ft | 501 kts | 281° |
| 2026-05-04 16:48 | 51.87876 | -3.95392 | 38006 ft | 496 kts | 281° |
| 2026-05-04 16:49 | 51.90628 | -4.17252 | 38007 ft | 496 kts | 281° |
| 2026-05-04 16:50 | 51.93335 | -4.39098 | 38015 ft | 496 kts | 281° |
| 2026-05-04 16:51 | 51.95349 | -4.55591 | 38021 ft | 498 kts | 281° |
| 2026-05-04 16:52 | 51.97998 | -4.77595 | 38020 ft | 500 kts | 281° |
| 2026-05-04 16:53 | 51.99969 | -4.94212 | 38041 ft | 500 kts | 281° |
| 2026-05-04 16:54 | 52.02569 | -5.16461 | 38017 ft | 502 kts | 281° |
| 2026-05-04 16:55 | 52.08827 | -5.48774 | 38049 ft | 501 kts | 289° |
| 2026-05-04 16:56 | 52.14177 | -5.75674 | 38029 ft | 501 kts | 289° |
| 2026-05-04 16:57 | 52.16887 | -5.92107 | 38053 ft | 502 kts | 283° |
| 2026-05-04 16:58 | 52.19781 | -6.14249 | 38054 ft | 501 kts | 283° |
| 2026-05-04 17:00 | 52.24084 | -6.47504 | 38058 ft | 500 kts | 283° |
| 2026-05-04 17:01 | 52.27576 | -6.75278 | 38065 ft | 500 kts | 282° |
| 2026-05-04 17:02 | 52.30322 | -6.97520 | 38066 ft | 499 kts | 282° |
| 2026-05-04 17:03 | 52.32347 | -7.14155 | 38074 ft | 499 kts | 282° |
| 2026-05-04 17:03 | 52.34356 | -7.30871 | 38074 ft | 500 kts | 282° |
| 2026-05-04 17:04 | 52.36989 | -7.53109 | 38061 ft | 499 kts | 282° |
| 2026-05-04 17:05 | 52.39587 | -7.75431 | 38063 ft | 499 kts | 282° |
| 2026-05-04 17:06 | 52.41500 | -7.92122 | 38072 ft | 499 kts | 282° |
| 2026-05-04 17:07 | 52.43185 | -8.07013 | 38078 ft | 499 kts | 282° |
| 2026-05-04 17:07 | 52.44649 | -8.20085 | 38081 ft | 499 kts | 282° |
| 2026-05-04 17:08 | 52.46497 | -8.36791 | 38080 ft | 499 kts | 282° |
| 2026-05-04 17:09 | 52.47718 | -8.47970 | 38117 ft | 497 kts | 282° |
| 2026-05-04 17:09 | 52.48925 | -8.59109 | 38142 ft | 495 kts | 282° |
| 2026-05-04 17:10 | 52.51871 | -8.86729 | 38109 ft | 491 kts | 282° |
| 2026-05-04 17:11 | 52.53028 | -8.97767 | 38097 ft | 490 kts | 282° |
| 2026-05-04 17:12 | 52.54739 | -9.14271 | 38109 ft | 488 kts | 282° |
| 2026-05-04 17:13 | 52.57521 | -9.41623 | 38102 ft | 487 kts | 282° |
| 2026-05-04 17:14 | 52.59706 | -9.63584 | 38115 ft | 487 kts | 282° |
| 2026-05-04 17:15 | 52.61312 | -9.79989 | 38145 ft | 486 kts | 281° |
| 2026-05-04 17:16 | 52.63424 | -10.01977 | 38138 ft | 486 kts | 281° |
| 2026-05-04 17:17 | 52.65483 | -10.23834 | 38134 ft | 484 kts | 280° |
| 2026-05-04 17:18 | 52.67502 | -10.45729 | 38116 ft | 483 kts | 280° |
| 2026-05-04 17:19 | 52.69473 | -10.67545 | 38140 ft | 483 kts | 280° |
| 2026-05-04 17:20 | 52.71409 | -10.89447 | 38143 ft | 483 kts | 280° |
| 2026-05-04 17:20 | 52.72837 | -11.05913 | 38147 ft | 484 kts | 279° |
| 2026-05-04 17:21 | 52.74697 | -11.27782 | 38157 ft | 482 kts | 279° |
| 2026-05-04 17:22 | 52.75612 | -11.38728 | 38156 ft | 481 kts | 279° |
| 2026-05-04 17:23 | 52.77400 | -11.60495 | 38143 ft | 480 kts | 279° |
| 2026-05-04 17:24 | 52.78719 | -11.76853 | 38149 ft | 478 kts | 279° |
| 2026-05-04 17:25 | 52.80435 | -11.98619 | 38144 ft | 477 kts | 278° |
| 2026-05-04 17:26 | 52.82104 | -12.20301 | 38148 ft | 477 kts | 278° |
| 2026-05-04 17:27 | 52.84137 | -12.47466 | 38161 ft | 475 kts | 278° |
| 2026-05-04 17:28 | 52.85710 | -12.69084 | 38173 ft | 474 kts | 278° |
| 2026-05-04 17:29 | 52.87991 | -13.01464 | 38161 ft | 472 kts | 277° |
| 2026-05-04 17:31 | 52.89824 | -13.28475 | 38168 ft | 472 kts | 277° |
| 2026-05-04 17:32 | 52.91586 | -13.55374 | 38174 ft | 471 kts | 277° |
| 2026-05-04 17:33 | 52.92951 | -13.76885 | 38192 ft | 471 kts | 277° |
| 2026-05-04 17:34 | 52.94280 | -13.98440 | 38192 ft | 470 kts | 276° |
| 2026-05-04 17:35 | 52.95877 | -14.25263 | 38182 ft | 468 kts | 276° |
| 2026-05-04 17:36 | 52.96500 | -14.36012 | 38194 ft | 468 kts | 276° |
| 2026-05-04 17:36 | 52.97113 | -14.46760 | 38193 ft | 468 kts | 276° |
| 2026-05-04 17:36 | 52.97417 | -14.52159 | 38400 ft | 471 kts | 276° |
| 2026-05-04 17:37 | 52.97715 | -14.57490 | 38824 ft | 470 kts | 276° |
| 2026-05-04 17:37 | 52.98020 | -14.62970 | 39106 ft | 471 kts | 276° |
| 2026-05-04 17:37 | 52.98317 | -14.68330 | 39190 ft | 477 kts | 276° |
| 2026-05-04 17:38 | 52.98911 | -14.79120 | 39199 ft | 466 kts | 276° |
| 2026-05-04 17:38 | 52.99496 | -14.89893 | 39200 ft | 470 kts | 276° |
| 2026-05-04 17:39 | 53.01219 | -15.05707 | 39206 ft | 466 kts | 291° |
| 2026-05-04 17:39 | 53.03525 | -15.15796 | 39212 ft | 467 kts | 291° |
| 2026-05-04 17:40 | 53.05810 | -15.25886 | 39203 ft | 465 kts | 291° |
| 2026-05-04 17:40 | 53.08062 | -15.35957 | 39185 ft | 464 kts | 290° |
| 2026-05-04 17:41 | 53.10274 | -15.45933 | 39184 ft | 462 kts | 290° |
| 2026-05-04 17:41 | 53.12486 | -15.55962 | 39176 ft | 461 kts | 290° |
| 2026-05-04 17:42 | 53.14682 | -15.65971 | 39190 ft | 459 kts | 290° |
| 2026-05-04 17:42 | 53.16864 | -15.75959 | 39168 ft | 459 kts | 290° |
| 2026-05-04 17:43 | 53.19032 | -15.85931 | 39217 ft | 465 kts | 290° |
| 2026-05-04 17:43 | 53.21234 | -15.96109 | 39224 ft | 468 kts | 290° |
| 2026-05-04 17:44 | 53.23425 | -16.06291 | 39220 ft | 464 kts | 290° |
| 2026-05-04 17:44 | 53.25603 | -16.16460 | 39222 ft | 465 kts | 290° |
| 2026-05-04 17:45 | 53.27752 | -16.26545 | 39225 ft | 463 kts | 290° |
| 2026-05-04 17:45 | 53.29901 | -16.36680 | 39197 ft | 462 kts | 290° |
| 2026-05-04 17:46 | 53.32035 | -16.46792 | 39197 ft | 460 kts | 290° |
| 2026-05-04 17:46 | 53.34161 | -16.56920 | 39229 ft | 466 kts | 289° |
| 2026-05-04 17:47 | 53.36283 | -16.67078 | 39232 ft | 465 kts | 289° |
| 2026-05-04 17:47 | 53.38409 | -16.77310 | 39235 ft | 464 kts | 289° |
| 2026-05-04 17:48 | 53.40523 | -16.87535 | 39236 ft | 465 kts | 289° |
| 2026-05-04 17:48 | 53.42634 | -16.97800 | 39247 ft | 464 kts | 289° |
| 2026-05-04 17:49 | 53.44712 | -17.07950 | 39219 ft | 463 kts | 289° |
| 2026-05-04 17:49 | 53.46787 | -17.18144 | 39222 ft | 460 kts | 289° |
| 2026-05-04 17:50 | 53.48846 | -17.28311 | 39200 ft | 459 kts | 289° |
| 2026-05-04 17:50 | 53.50888 | -17.38448 | 39190 ft | 457 kts | 289° |
| 2026-05-04 17:51 | 53.52925 | -17.48608 | 39250 ft | 469 kts | 289° |
| 2026-05-04 17:51 | 53.54985 | -17.58935 | 39251 ft | 466 kts | 289° |
| 2026-05-04 17:52 | 53.57034 | -17.69266 | 39253 ft | 465 kts | 289° |
| 2026-05-04 17:52 | 53.59071 | -17.79591 | 39251 ft | 465 kts | 289° |
| 2026-05-04 17:53 | 53.61088 | -17.89867 | 39252 ft | 466 kts | 288° |
| 2026-05-04 17:53 | 53.63111 | -18.00234 | 39261 ft | 466 kts | 288° |
| 2026-05-04 17:54 | 53.65128 | -18.10621 | 39267 ft | 466 kts | 288° |
| 2026-05-04 17:54 | 53.67123 | -18.20953 | 39276 ft | 466 kts | 288° |
| 2026-05-04 17:55 | 53.69119 | -18.31346 | 39273 ft | 466 kts | 288° |
| 2026-05-04 17:55 | 53.71107 | -18.41750 | 39270 ft | 465 kts | 288° |
| 2026-05-04 17:56 | 53.73084 | -18.52158 | 39263 ft | 465 kts | 288° |
| 2026-05-04 17:56 | 53.75036 | -18.62492 | 39258 ft | 465 kts | 288° |
| 2026-05-04 17:57 | 53.76992 | -18.72900 | 39265 ft | 464 kts | 288° |
| 2026-05-04 17:57 | 53.78937 | -18.83309 | 39266 ft | 464 kts | 288° |
| 2026-05-04 17:58 | 53.80873 | -18.93728 | 39275 ft | 464 kts | 288° |
| 2026-05-04 17:58 | 53.82786 | -19.04085 | 39272 ft | 464 kts | 288° |
| 2026-05-04 17:59 | 53.84702 | -19.14510 | 39270 ft | 464 kts | 287° |
| 2026-05-04 18:00 | 53.87561 | -19.30183 | 39276 ft | 464 kts | 287° |
| 2026-05-04 18:00 | 53.89443 | -19.40571 | 39283 ft | 464 kts | 287° |
| 2026-05-04 18:01 | 53.91329 | -19.51041 | 39289 ft | 464 kts | 287° |
| 2026-05-04 18:01 | 53.93206 | -19.61520 | 39282 ft | 465 kts | 287° |
| 2026-05-04 18:02 | 53.96008 | -19.77279 | 39289 ft | 465 kts | 287° |
| 2026-05-04 18:02 | 53.97856 | -19.87724 | 39287 ft | 465 kts | 287° |
| 2026-05-04 18:03 | 53.99563 | -19.98315 | 39297 ft | 465 kts | 282° |
| 2026-05-04 18:03 | 54.00378 | -20.09223 | 39290 ft | 466 kts | 274° |
| 2026-05-04 18:04 | 54.00779 | -20.20215 | 39304 ft | 466 kts | 275° |
| 2026-05-04 18:05 | 54.01447 | -20.36649 | 39303 ft | 467 kts | 275° |
| 2026-05-04 18:05 | 54.01879 | -20.47663 | 39308 ft | 467 kts | 275° |
| 2026-05-04 18:06 | 54.02499 | -20.64174 | 39312 ft | 466 kts | 274° |
| 2026-05-04 18:06 | 54.02892 | -20.75112 | 39318 ft | 466 kts | 274° |
| 2026-05-04 18:07 | 54.03276 | -20.86124 | 39301 ft | 466 kts | 274° |
| 2026-05-04 18:07 | 54.03649 | -20.97130 | 39312 ft | 466 kts | 274° |
| 2026-05-04 18:08 | 54.03951 | -21.06266 | 39307 ft | 466 kts | 274° |
| 2026-05-04 18:08 | 54.04362 | -21.19047 | 39315 ft | 465 kts | 274° |
| 2026-05-04 18:09 | 54.05039 | -21.41047 | 39308 ft | 465 kts | 274° |
| 2026-05-04 18:10 | 54.05307 | -21.50181 | 39317 ft | 465 kts | 274° |
| 2026-05-04 18:10 | 54.05672 | -21.62966 | 39320 ft | 465 kts | 274° |
| 2026-05-04 18:11 | 54.05975 | -21.73969 | 39323 ft | 465 kts | 274° |
| 2026-05-04 18:11 | 54.06219 | -21.83109 | 39323 ft | 465 kts | 274° |
| 2026-05-04 18:12 | 54.06549 | -21.95902 | 39323 ft | 466 kts | 273° |
| 2026-05-04 18:12 | 54.06822 | -22.06922 | 39328 ft | 466 kts | 273° |
| 2026-05-04 18:13 | 54.07041 | -22.16073 | 39324 ft | 466 kts | 273° |
| 2026-05-04 18:14 | 54.07458 | -22.34392 | 39332 ft | 466 kts | 273° |
| 2026-05-04 18:14 | 54.07696 | -22.45417 | 39333 ft | 466 kts | 273° |
| 2026-05-04 18:15 | 54.08106 | -22.65614 | 39337 ft | 466 kts | 273° |
| 2026-05-04 18:16 | 54.08348 | -22.78428 | 39339 ft | 466 kts | 273° |
| 2026-05-04 18:16 | 54.08513 | -22.87585 | 39340 ft | 466 kts | 272° |
| 2026-05-04 18:17 | 54.08793 | -23.04123 | 39341 ft | 466 kts | 272° |
| 2026-05-04 18:18 | 54.09077 | -23.22451 | 39344 ft | 466 kts | 272° |
| 2026-05-04 18:18 | 54.09209 | -23.31684 | 39344 ft | 466 kts | 272° |
| 2026-05-04 18:19 | 54.09428 | -23.48154 | 39342 ft | 466 kts | 272° |
| 2026-05-04 18:19 | 54.09583 | -23.60980 | 39341 ft | 466 kts | 272° |
| 2026-05-04 18:20 | 54.09686 | -23.70226 | 39346 ft | 466 kts | 272° |
| 2026-05-04 18:20 | 54.09799 | -23.81204 | 39347 ft | 467 kts | 272° |
| 2026-05-04 18:21 | 54.09903 | -23.92262 | 39346 ft | 467 kts | 272° |
| 2026-05-04 18:21 | 54.09996 | -24.03321 | 39353 ft | 467 kts | 272° |
| 2026-05-04 18:22 | 54.10080 | -24.14373 | 39351 ft | 467 kts | 271° |
| 2026-05-04 18:22 | 54.10153 | -24.25364 | 39367 ft | 467 kts | 271° |
| 2026-05-04 18:23 | 54.10217 | -24.36431 | 39356 ft | 467 kts | 271° |
| 2026-05-04 18:23 | 54.10270 | -24.47502 | 39360 ft | 467 kts | 271° |
| 2026-05-04 18:24 | 54.10313 | -24.58496 | 39353 ft | 467 kts | 271° |
| 2026-05-04 18:24 | 54.10345 | -24.69558 | 39355 ft | 467 kts | 271° |
| 2026-05-04 18:25 | 54.10368 | -24.80610 | 39353 ft | 467 kts | 271° |
| 2026-05-04 18:25 | 54.10381 | -24.91675 | 39360 ft | 467 kts | 271° |
| 2026-05-04 18:26 | 54.10383 | -25.02745 | 39357 ft | 467 kts | 271° |
| 2026-05-04 18:26 | 54.10376 | -25.13739 | 39362 ft | 467 kts | 271° |
| 2026-05-04 18:27 | 54.10358 | -25.24804 | 39364 ft | 467 kts | 270° |
| 2026-05-04 18:27 | 54.10330 | -25.35857 | 39362 ft | 467 kts | 270° |
| 2026-05-04 18:28 | 54.10292 | -25.46924 | 39364 ft | 467 kts | 270° |
| 2026-05-04 18:28 | 54.10245 | -25.57921 | 39361 ft | 467 kts | 270° |
| 2026-05-04 18:29 | 54.10187 | -25.68995 | 39360 ft | 467 kts | 270° |
| 2026-05-04 18:29 | 54.10118 | -25.80055 | 39360 ft | 467 kts | 270° |
| 2026-05-04 18:30 | 54.09997 | -25.96587 | 39366 ft | 467 kts | 270° |
| 2026-05-04 18:31 | 54.09903 | -26.07659 | 39366 ft | 467 kts | 270° |
| 2026-05-04 18:31 | 54.09799 | -26.18741 | 39367 ft | 468 kts | 270° |
| 2026-05-04 18:32 | 54.09685 | -26.29810 | 39366 ft | 468 kts | 270° |
| 2026-05-04 18:32 | 54.09562 | -26.40819 | 39368 ft | 468 kts | 270° |
| 2026-05-04 18:33 | 54.09427 | -26.51905 | 39372 ft | 468 kts | 269° |
| 2026-05-04 18:33 | 54.09282 | -26.62990 | 39368 ft | 468 kts | 269° |
| 2026-05-04 18:34 | 54.09127 | -26.74081 | 39378 ft | 468 kts | 269° |
| 2026-05-04 18:34 | 54.08962 | -26.85178 | 39365 ft | 468 kts | 269° |
| 2026-05-04 18:35 | 54.08788 | -26.96187 | 39370 ft | 469 kts | 269° |
| 2026-05-04 18:35 | 54.08602 | -27.07284 | 39371 ft | 469 kts | 269° |
| 2026-05-04 18:36 | 54.08406 | -27.18383 | 39369 ft | 469 kts | 269° |
| 2026-05-04 18:36 | 54.08200 | -27.29487 | 39376 ft | 469 kts | 269° |
| 2026-05-04 18:37 | 54.07985 | -27.40518 | 39381 ft | 469 kts | 269° |
| 2026-05-04 18:37 | 54.07758 | -27.51611 | 39373 ft | 469 kts | 269° |
| 2026-05-04 18:38 | 54.07521 | -27.62714 | 39373 ft | 469 kts | 269° |
| 2026-05-04 18:38 | 54.07274 | -27.73817 | 39374 ft | 469 kts | 269° |
| 2026-05-04 18:39 | 54.07018 | -27.84846 | 39371 ft | 469 kts | 269° |
| 2026-05-04 18:39 | 54.06751 | -27.95936 | 39379 ft | 469 kts | 269° |
| 2026-05-04 18:40 | 54.06473 | -28.07046 | 39375 ft | 469 kts | 268° |
| 2026-05-04 18:40 | 54.06185 | -28.18149 | 39378 ft | 469 kts | 268° |
| 2026-05-04 18:41 | 54.05889 | -28.29166 | 39375 ft | 469 kts | 268° |
| 2026-05-04 18:41 | 54.05580 | -28.40265 | 39378 ft | 469 kts | 268° |
| 2026-05-04 18:42 | 54.05262 | -28.51363 | 39381 ft | 469 kts | 268° |
| 2026-05-04 18:42 | 54.04932 | -28.62460 | 39380 ft | 469 kts | 268° |
| 2026-05-04 18:43 | 54.04594 | -28.73543 | 39379 ft | 470 kts | 268° |
| 2026-05-04 18:43 | 54.04247 | -28.84567 | 39381 ft | 470 kts | 268° |
| 2026-05-04 18:44 | 54.03887 | -28.95671 | 39379 ft | 470 kts | 268° |
| 2026-05-04 18:44 | 54.03517 | -29.06758 | 39382 ft | 470 kts | 268° |
| 2026-05-04 18:45 | 54.03136 | -29.17859 | 39386 ft | 470 kts | 268° |
| 2026-05-04 18:45 | 54.02749 | -29.28878 | 39381 ft | 470 kts | 268° |
| 2026-05-04 18:46 | 54.02348 | -29.39975 | 39382 ft | 470 kts | 268° |
| 2026-05-04 18:46 | 54.01937 | -29.51062 | 39383 ft | 470 kts | 268° |
| 2026-05-04 18:47 | 54.01518 | -29.62163 | 39384 ft | 470 kts | 268° |
| 2026-05-04 18:47 | 54.01098 | -29.73185 | 39373 ft | 470 kts | 268° |
| 2026-05-04 18:48 | 54.00667 | -29.84262 | 39386 ft | 470 kts | 268° |
| 2026-05-04 18:48 | 54.00225 | -29.95352 | 39391 ft | 470 kts | 268° |
| 2026-05-04 18:49 | 53.99981 | -30.06436 | 39387 ft | 468 kts | 275° |
| 2026-05-04 18:49 | 54.00556 | -30.17382 | 39388 ft | 468 kts | 276° |
| 2026-05-04 18:50 | 54.01106 | -30.28404 | 39391 ft | 469 kts | 275° |
| 2026-05-04 18:50 | 54.01562 | -30.39459 | 39391 ft | 469 kts | 275° |
| 2026-05-04 18:51 | 54.01990 | -30.50522 | 39393 ft | 469 kts | 275° |
| 2026-05-04 18:51 | 54.02402 | -30.61519 | 39397 ft | 469 kts | 275° |
| 2026-05-04 18:52 | 54.02802 | -30.72585 | 39399 ft | 469 kts | 275° |
| 2026-05-04 18:52 | 54.03191 | -30.83668 | 39399 ft | 469 kts | 275° |
| 2026-05-04 18:53 | 54.03569 | -30.94754 | 39395 ft | 469 kts | 275° |
| 2026-05-04 18:53 | 54.03934 | -31.05762 | 39398 ft | 469 kts | 275° |
| 2026-05-04 18:54 | 54.04292 | -31.16842 | 39399 ft | 469 kts | 275° |
| 2026-05-04 18:54 | 54.04640 | -31.27921 | 39403 ft | 469 kts | 275° |
| 2026-05-04 18:55 | 54.04977 | -31.39003 | 39395 ft | 469 kts | 274° |
| 2026-05-04 18:55 | 54.05462 | -31.55544 | 39396 ft | 469 kts | 274° |
| 2026-05-04 18:56 | 54.05773 | -31.66625 | 39399 ft | 468 kts | 274° |
| 2026-05-04 18:56 | 54.06075 | -31.77695 | 39397 ft | 468 kts | 274° |
| 2026-05-04 18:57 | 54.06364 | -31.88677 | 39398 ft | 468 kts | 274° |
| 2026-05-04 18:57 | 54.06645 | -31.99746 | 39394 ft | 468 kts | 274° |
| 2026-05-04 18:58 | 54.06916 | -32.10810 | 39394 ft | 468 kts | 274° |
| 2026-05-04 18:58 | 54.07176 | -32.21876 | 39389 ft | 468 kts | 274° |
| 2026-05-04 18:59 | 54.07425 | -32.32934 | 39405 ft | 467 kts | 274° |
| 2026-05-04 18:59 | 54.07663 | -32.43890 | 39401 ft | 466 kts | 274° |
| 2026-05-04 19:00 | 54.07893 | -32.54917 | 39398 ft | 466 kts | 274° |
| 2026-05-04 19:00 | 54.08112 | -32.65934 | 39395 ft | 465 kts | 274° |
| 2026-05-04 19:01 | 54.08319 | -32.76868 | 39390 ft | 465 kts | 274° |
| 2026-05-04 19:01 | 54.08518 | -32.87864 | 39387 ft | 465 kts | 274° |
| 2026-05-04 19:02 | 54.08705 | -32.98862 | 39390 ft | 464 kts | 274° |
| 2026-05-04 19:02 | 54.08884 | -33.09861 | 39379 ft | 465 kts | 274° |
| 2026-05-04 19:03 | 54.09052 | -33.20789 | 39397 ft | 465 kts | 274° |
| 2026-05-04 19:03 | 54.09210 | -33.31787 | 39382 ft | 465 kts | 274° |
| 2026-05-04 19:04 | 54.09359 | -33.42793 | 39390 ft | 465 kts | 274° |
| 2026-05-04 19:04 | 54.09497 | -33.53801 | 39384 ft | 465 kts | 274° |
| 2026-05-04 19:05 | 54.09625 | -33.64797 | 39389 ft | 465 kts | 274° |
| 2026-05-04 19:05 | 54.09743 | -33.75735 | 39392 ft | 465 kts | 274° |
| 2026-05-04 19:06 | 54.09852 | -33.86744 | 39380 ft | 465 kts | 274° |
| 2026-05-04 19:06 | 54.09950 | -33.97761 | 39390 ft | 465 kts | 274° |
| 2026-05-04 19:07 | 54.10038 | -34.08779 | 39392 ft | 465 kts | 274° |
| 2026-05-04 19:07 | 54.10116 | -34.19713 | 39392 ft | 465 kts | 274° |
| 2026-05-04 19:08 | 54.10184 | -34.30717 | 39388 ft | 464 kts | 274° |
| 2026-05-04 19:08 | 54.10242 | -34.41714 | 39385 ft | 464 kts | 274° |
| 2026-05-04 19:09 | 54.10290 | -34.52634 | 39384 ft | 464 kts | 274° |
| 2026-05-04 19:09 | 54.10328 | -34.63620 | 39380 ft | 464 kts | 274° |
| 2026-05-04 19:10 | 54.10356 | -34.74591 | 39370 ft | 463 kts | 274° |
| 2026-05-04 19:10 | 54.10374 | -34.85570 | 39361 ft | 463 kts | 274° |
| 2026-05-04 19:11 | 54.10382 | -34.96532 | 39377 ft | 462 kts | 274° |
| 2026-05-04 19:11 | 54.10380 | -35.07414 | 39381 ft | 462 kts | 274° |
| 2026-05-04 19:12 | 54.10359 | -35.23829 | 39374 ft | 461 kts | 274° |
| 2026-05-04 19:13 | 54.10333 | -35.34762 | 39368 ft | 461 kts | 274° |
| 2026-05-04 19:13 | 54.10296 | -35.45617 | 39366 ft | 461 kts | 274° |
| 2026-05-04 19:14 | 54.10249 | -35.56510 | 39376 ft | 459 kts | 274° |
| 2026-05-04 19:14 | 54.10194 | -35.67389 | 39367 ft | 459 kts | 274° |
| 2026-05-04 19:15 | 54.10129 | -35.78256 | 39361 ft | 458 kts | 274° |
| 2026-05-04 19:15 | 54.10054 | -35.89035 | 39363 ft | 458 kts | 273° |
| 2026-05-04 19:16 | 54.09969 | -35.99869 | 39360 ft | 457 kts | 273° |
| 2026-05-04 19:16 | 54.09874 | -36.10692 | 39352 ft | 457 kts | 273° |
| 2026-05-04 19:17 | 54.09770 | -36.21466 | 39368 ft | 454 kts | 273° |
| 2026-05-04 19:17 | 54.09658 | -36.32151 | 39361 ft | 454 kts | 273° |
| 2026-05-04 19:18 | 54.09536 | -36.42890 | 39349 ft | 453 kts | 273° |
| 2026-05-04 19:18 | 54.09404 | -36.53603 | 39345 ft | 452 kts | 273° |
| 2026-05-04 19:19 | 54.09263 | -36.64289 | 39333 ft | 451 kts | 273° |
| 2026-05-04 19:19 | 54.09114 | -36.74906 | 39323 ft | 451 kts | 273° |
| 2026-05-04 19:20 | 54.08954 | -36.85573 | 39345 ft | 450 kts | 273° |
| 2026-05-04 19:20 | 54.08786 | -36.96232 | 39336 ft | 450 kts | 272° |
| 2026-05-04 19:21 | 54.08607 | -37.06891 | 39335 ft | 450 kts | 272° |
| 2026-05-04 19:21 | 54.08421 | -37.17474 | 39325 ft | 450 kts | 272° |
| 2026-05-04 19:22 | 54.08224 | -37.28121 | 39321 ft | 450 kts | 272° |
| 2026-05-04 19:22 | 54.08018 | -37.38748 | 39321 ft | 449 kts | 272° |
| 2026-05-04 19:23 | 54.07804 | -37.49375 | 39307 ft | 449 kts | 272° |
| 2026-05-04 19:23 | 54.07581 | -37.59933 | 39311 ft | 449 kts | 272° |
| 2026-05-04 19:24 | 54.07346 | -37.70562 | 39304 ft | 449 kts | 272° |
| 2026-05-04 19:24 | 54.07103 | -37.81200 | 39306 ft | 450 kts | 271° |
| 2026-05-04 19:25 | 54.06850 | -37.91841 | 39301 ft | 450 kts | 271° |
| 2026-05-04 19:25 | 54.06589 | -38.02412 | 39301 ft | 450 kts | 271° |
| 2026-05-04 19:26 | 54.06318 | -38.13004 | 39293 ft | 445 kts | 271° |
| 2026-05-04 19:26 | 54.06041 | -38.23433 | 39288 ft | 439 kts | 271° |
| 2026-05-04 19:27 | 54.05759 | -38.33832 | 39287 ft | 440 kts | 271° |
| 2026-05-04 19:27 | 54.05468 | -38.44178 | 39277 ft | 441 kts | 271° |
| 2026-05-04 19:28 | 54.05166 | -38.54587 | 39273 ft | 441 kts | 271° |
| 2026-05-04 19:28 | 54.04856 | -38.65008 | 39279 ft | 441 kts | 271° |
| 2026-05-04 19:29 | 54.04536 | -38.75442 | 39247 ft | 442 kts | 270° |
| 2026-05-04 19:29 | 54.04207 | -38.85843 | 39252 ft | 444 kts | 270° |
| 2026-05-04 19:30 | 54.03865 | -38.96347 | 39257 ft | 445 kts | 270° |
| 2026-05-04 19:30 | 54.03513 | -39.06881 | 39269 ft | 447 kts | 270° |
| 2026-05-04 19:31 | 54.03151 | -39.17425 | 39258 ft | 447 kts | 270° |
| 2026-05-04 19:31 | 54.02782 | -39.27923 | 39257 ft | 448 kts | 270° |
| 2026-05-04 19:32 | 54.02402 | -39.38488 | 39272 ft | 447 kts | 269° |
| 2026-05-04 19:32 | 54.02013 | -39.49019 | 39252 ft | 446 kts | 269° |
| 2026-05-04 19:33 | 54.01617 | -39.59521 | 39231 ft | 444 kts | 269° |
| 2026-05-04 19:33 | 54.01222 | -39.69917 | 39237 ft | 443 kts | 269° |
| 2026-05-04 19:34 | 54.00818 | -39.80365 | 39211 ft | 442 kts | 268° |
| 2026-05-04 19:34 | 54.00405 | -39.90797 | 39210 ft | 442 kts | 268° |
| 2026-05-04 19:35 | 53.99951 | -40.01211 | 39219 ft | 441 kts | 266° |
| 2026-05-04 19:35 | 53.99280 | -40.11540 | 39222 ft | 439 kts | 266° |
| 2026-05-04 19:36 | 53.98699 | -40.21791 | 39217 ft | 438 kts | 266° |
| 2026-05-04 19:36 | 53.98114 | -40.32086 | 39208 ft | 437 kts | 266° |
| 2026-05-04 19:37 | 53.97512 | -40.42355 | 39195 ft | 436 kts | 266° |
| 2026-05-04 19:37 | 53.96905 | -40.52531 | 39181 ft | 436 kts | 265° |
| 2026-05-04 19:38 | 53.96282 | -40.62772 | 39177 ft | 436 kts | 265° |
| 2026-05-04 19:38 | 53.95645 | -40.73008 | 39167 ft | 436 kts | 265° |
| 2026-05-04 19:39 | 53.94999 | -40.83234 | 39167 ft | 436 kts | 265° |
| 2026-05-04 19:39 | 53.94343 | -40.93476 | 39166 ft | 437 kts | 265° |
| 2026-05-04 19:40 | 53.93682 | -41.03657 | 39155 ft | 437 kts | 265° |
| 2026-05-04 19:40 | 53.93007 | -41.13914 | 39168 ft | 437 kts | 265° |
| 2026-05-04 19:41 | 53.92325 | -41.24161 | 39150 ft | 438 kts | 264° |
| 2026-05-04 19:41 | 53.91633 | -41.34424 | 39150 ft | 438 kts | 264° |
| 2026-05-04 19:42 | 53.90934 | -41.44626 | 39140 ft | 439 kts | 263° |
| 2026-05-04 19:42 | 53.90221 | -41.54907 | 39128 ft | 439 kts | 263° |
| 2026-05-04 19:43 | 53.89499 | -41.65192 | 39135 ft | 439 kts | 263° |
| 2026-05-04 19:43 | 53.88768 | -41.75481 | 39120 ft | 440 kts | 263° |
| 2026-05-04 19:44 | 53.88030 | -41.85768 | 39130 ft | 439 kts | 262° |
| 2026-05-04 19:44 | 53.87289 | -41.95956 | 39126 ft | 439 kts | 262° |
| 2026-05-04 19:45 | 53.86533 | -42.06202 | 39118 ft | 438 kts | 262° |
| 2026-05-04 19:45 | 53.85771 | -42.16419 | 39106 ft | 437 kts | 262° |
| 2026-05-04 19:46 | 53.85002 | -42.26612 | 39085 ft | 436 kts | 262° |
| 2026-05-04 19:46 | 53.84232 | -42.36708 | 39074 ft | 435 kts | 262° |
| 2026-05-04 19:47 | 53.83448 | -42.46870 | 39064 ft | 435 kts | 261° |
| 2026-05-04 19:47 | 53.82657 | -42.57023 | 39063 ft | 435 kts | 260° |
| 2026-05-04 19:48 | 53.81855 | -42.67171 | 39065 ft | 435 kts | 260° |
| 2026-05-04 19:48 | 53.81046 | -42.77302 | 39051 ft | 435 kts | 260° |
| 2026-05-04 19:49 | 53.80234 | -42.87371 | 39047 ft | 435 kts | 260° |
| 2026-05-04 19:49 | 53.79408 | -42.97501 | 39039 ft | 435 kts | 260° |
| 2026-05-04 19:50 | 53.78573 | -43.07638 | 39041 ft | 435 kts | 259° |
| 2026-05-04 19:50 | 53.77726 | -43.17817 | 39033 ft | 439 kts | 259° |
| 2026-05-04 19:51 | 53.76868 | -43.27995 | 39033 ft | 441 kts | 259° |
| 2026-05-04 19:51 | 53.75997 | -43.38242 | 39017 ft | 441 kts | 258° |
| 2026-05-04 19:52 | 53.75116 | -43.48493 | 39005 ft | 441 kts | 258° |
| 2026-05-04 19:52 | 53.74226 | -43.58744 | 39002 ft | 441 kts | 258° |
| 2026-05-04 19:53 | 53.73328 | -43.68985 | 38986 ft | 441 kts | 258° |
| 2026-05-04 19:53 | 53.72426 | -43.79172 | 38971 ft | 442 kts | 257° |
| 2026-05-04 19:54 | 53.71507 | -43.89438 | 38976 ft | 442 kts | 257° |
| 2026-05-04 19:54 | 53.70579 | -43.99701 | 38969 ft | 443 kts | 257° |
| 2026-05-04 19:55 | 53.69640 | -44.09982 | 38963 ft | 443 kts | 257° |
| 2026-05-04 19:55 | 53.68698 | -44.20205 | 38951 ft | 444 kts | 257° |
| 2026-05-04 19:56 | 53.67740 | -44.30502 | 38961 ft | 446 kts | 256° |
| 2026-05-04 19:56 | 53.66767 | -44.40866 | 38948 ft | 448 kts | 256° |
| 2026-05-04 19:57 | 53.65786 | -44.51185 | 38930 ft | 449 kts | 256° |
| 2026-05-04 19:57 | 53.64792 | -44.61566 | 38928 ft | 448 kts | 255° |
| 2026-05-04 19:58 | 53.63790 | -44.71935 | 38909 ft | 448 kts | 255° |
| 2026-05-04 19:58 | 53.62780 | -44.82281 | 38899 ft | 448 kts | 255° |
| 2026-05-04 19:59 | 53.61768 | -44.92558 | 38873 ft | 448 kts | 255° |
| 2026-05-04 19:59 | 53.60736 | -45.02936 | 38859 ft | 450 kts | 254° |
| 2026-05-04 20:00 | 53.59692 | -45.13333 | 38871 ft | 451 kts | 254° |
| 2026-05-04 20:00 | 53.58636 | -45.23764 | 38851 ft | 453 kts | 254° |
| 2026-05-04 20:01 | 53.57568 | -45.34212 | 38859 ft | 454 kts | 254° |
| 2026-05-04 20:01 | 53.56495 | -45.44620 | 38847 ft | 455 kts | 254° |
| 2026-05-04 20:02 | 53.55403 | -45.55116 | 38800 ft | 457 kts | 253° |
| 2026-05-04 20:02 | 53.54295 | -45.65667 | 38800 ft | 459 kts | 253° |
| 2026-05-04 20:03 | 53.53173 | -45.76259 | 38813 ft | 461 kts | 253° |
| 2026-05-04 20:03 | 53.52046 | -45.86814 | 38816 ft | 463 kts | 253° |
| 2026-05-04 20:04 | 53.50898 | -45.97466 | 38814 ft | 464 kts | 253° |
| 2026-05-04 20:04 | 53.49740 | -46.08125 | 38846 ft | 464 kts | 253° |
| 2026-05-04 20:05 | 53.48566 | -46.18823 | 38742 ft | 469 kts | 252° |
| 2026-05-04 20:05 | 53.47372 | -46.29610 | 38762 ft | 471 kts | 252° |
| 2026-05-04 20:06 | 53.46173 | -46.40350 | 38769 ft | 473 kts | 252° |
| 2026-05-04 20:06 | 53.44950 | -46.51217 | 38777 ft | 474 kts | 252° |
| 2026-05-04 20:07 | 53.43715 | -46.62105 | 38786 ft | 476 kts | 252° |
| 2026-05-04 20:07 | 53.42468 | -46.72994 | 38779 ft | 476 kts | 252° |
| 2026-05-04 20:08 | 53.41210 | -46.83894 | 38772 ft | 476 kts | 252° |
| 2026-05-04 20:08 | 53.39950 | -46.94711 | 38767 ft | 476 kts | 252° |
| 2026-05-04 20:09 | 53.38673 | -47.05588 | 38748 ft | 476 kts | 252° |
| 2026-05-04 20:09 | 53.37385 | -47.16461 | 38745 ft | 476 kts | 252° |
| 2026-05-04 20:10 | 53.36089 | -47.27317 | 38740 ft | 475 kts | 252° |
| 2026-05-04 20:10 | 53.34792 | -47.38089 | 38706 ft | 476 kts | 251° |
| 2026-05-04 20:11 | 53.33474 | -47.48947 | 38701 ft | 476 kts | 251° |
| 2026-05-04 20:11 | 53.32148 | -47.59791 | 38691 ft | 476 kts | 251° |
| 2026-05-04 20:12 | 53.30812 | -47.70620 | 38696 ft | 476 kts | 251° |
| 2026-05-04 20:12 | 53.29472 | -47.81394 | 38686 ft | 477 kts | 251° |
| 2026-05-04 20:13 | 53.28112 | -47.92250 | 38717 ft | 478 kts | 251° |
| 2026-05-04 20:13 | 53.26731 | -48.03173 | 38646 ft | 481 kts | 251° |
| 2026-05-04 20:14 | 53.25339 | -48.14117 | 38645 ft | 482 kts | 251° |
| 2026-05-04 20:14 | 53.23942 | -48.25016 | 38660 ft | 484 kts | 251° |
| 2026-05-04 20:15 | 53.22521 | -48.36006 | 38665 ft | 486 kts | 251° |
| 2026-05-04 20:15 | 53.21084 | -48.47034 | 38668 ft | 487 kts | 251° |
| 2026-05-04 20:16 | 53.19632 | -48.58090 | 38647 ft | 489 kts | 251° |
| 2026-05-04 20:16 | 53.18179 | -48.69084 | 38650 ft | 489 kts | 251° |
| 2026-05-04 20:17 | 53.16705 | -48.80144 | 38642 ft | 489 kts | 251° |
| 2026-05-04 20:17 | 53.15216 | -48.91222 | 38626 ft | 490 kts | 251° |
| 2026-05-04 20:18 | 53.13716 | -49.02307 | 38627 ft | 491 kts | 251° |
| 2026-05-04 20:18 | 53.12203 | -49.13397 | 38622 ft | 492 kts | 251° |
| 2026-05-04 20:19 | 53.10688 | -49.24422 | 38605 ft | 492 kts | 251° |
| 2026-05-04 20:19 | 53.09151 | -49.35527 | 38604 ft | 493 kts | 251° |
| 2026-05-04 20:20 | 53.07603 | -49.46632 | 38603 ft | 493 kts | 251° |
| 2026-05-04 20:20 | 53.06043 | -49.57737 | 38598 ft | 494 kts | 251° |
| 2026-05-04 20:21 | 53.04486 | -49.68779 | 38609 ft | 495 kts | 251° |
| 2026-05-04 20:21 | 53.02113 | -49.85506 | 38580 ft | 497 kts | 251° |
| 2026-05-04 20:22 | 53.00460 | -49.96644 | 38565 ft | 496 kts | 249° |
| 2026-05-04 20:22 | 52.98256 | -50.07421 | 38573 ft | 491 kts | 242° |
| 2026-05-04 20:23 | 52.95665 | -50.17913 | 38572 ft | 492 kts | 243° |
| 2026-05-04 20:23 | 52.93152 | -50.28413 | 38569 ft | 494 kts | 243° |
| 2026-05-04 20:24 | 52.90602 | -50.38983 | 38555 ft | 494 kts | 243° |
| 2026-05-04 20:24 | 52.88034 | -50.49526 | 38554 ft | 494 kts | 243° |
| 2026-05-04 20:25 | 52.85453 | -50.60064 | 38543 ft | 494 kts | 242° |
| 2026-05-04 20:25 | 52.82880 | -50.70519 | 38568 ft | 494 kts | 242° |
| 2026-05-04 20:26 | 52.80276 | -50.81049 | 38513 ft | 495 kts | 242° |
| 2026-05-04 20:26 | 52.77664 | -50.91562 | 38503 ft | 495 kts | 242° |
| 2026-05-04 20:27 | 52.75038 | -51.02086 | 38509 ft | 495 kts | 242° |
| 2026-05-04 20:27 | 52.72423 | -51.12511 | 38503 ft | 495 kts | 242° |
| 2026-05-04 20:28 | 52.69779 | -51.23001 | 38484 ft | 496 kts | 242° |
| 2026-05-04 20:28 | 52.67120 | -51.33500 | 38479 ft | 496 kts | 242° |
| 2026-05-04 20:29 | 52.64453 | -51.43989 | 38477 ft | 496 kts | 242° |
| 2026-05-04 20:29 | 52.61792 | -51.54399 | 38470 ft | 497 kts | 242° |
| 2026-05-04 20:30 | 52.59107 | -51.64858 | 38461 ft | 497 kts | 242° |
| 2026-05-04 20:30 | 52.56406 | -51.75327 | 38444 ft | 498 kts | 242° |
| 2026-05-04 20:31 | 52.53694 | -51.85793 | 38445 ft | 498 kts | 242° |
| 2026-05-04 20:31 | 52.50990 | -51.96180 | 38448 ft | 498 kts | 242° |
| 2026-05-04 20:32 | 52.48257 | -52.06630 | 38448 ft | 498 kts | 242° |
| 2026-05-04 20:32 | 52.45512 | -52.17074 | 38445 ft | 499 kts | 242° |
| 2026-05-04 20:33 | 52.42761 | -52.27499 | 38432 ft | 499 kts | 242° |
| 2026-05-04 20:33 | 52.39997 | -52.37921 | 38416 ft | 499 kts | 242° |
| 2026-05-04 20:34 | 52.37243 | -52.48260 | 38402 ft | 499 kts | 241° |
| 2026-05-04 20:34 | 52.34462 | -52.58652 | 38406 ft | 499 kts | 241° |
| 2026-05-04 20:35 | 52.31671 | -52.69033 | 38399 ft | 499 kts | 242° |
| 2026-05-04 20:35 | 52.28875 | -52.79388 | 38399 ft | 498 kts | 242° |
| 2026-05-04 20:36 | 52.26088 | -52.89663 | 38383 ft | 498 kts | 241° |
| 2026-05-04 20:36 | 52.23272 | -52.99998 | 38350 ft | 499 kts | 241° |
| 2026-05-04 20:37 | 52.20443 | -53.10336 | 38379 ft | 499 kts | 241° |
| 2026-05-04 20:37 | 52.17604 | -53.20663 | 38343 ft | 500 kts | 241° |
| 2026-05-04 20:38 | 52.14770 | -53.30925 | 38361 ft | 500 kts | 241° |
| 2026-05-04 20:38 | 52.11909 | -53.41244 | 38345 ft | 500 kts | 241° |
| 2026-05-04 20:39 | 52.09037 | -53.51552 | 38328 ft | 500 kts | 241° |
| 2026-05-04 20:39 | 52.06156 | -53.61847 | 38330 ft | 500 kts | 241° |
| 2026-05-04 20:40 | 52.03284 | -53.72067 | 38327 ft | 500 kts | 241° |
| 2026-05-04 20:40 | 52.00390 | -53.82323 | 38308 ft | 500 kts | 241° |
| 2026-05-04 20:41 | 51.97481 | -53.92583 | 38296 ft | 500 kts | 241° |
| 2026-05-04 20:41 | 51.94571 | -54.02804 | 38320 ft | 500 kts | 241° |
| 2026-05-04 20:42 | 51.91651 | -54.13009 | 38477 ft | 505 kts | 241° |
| 2026-05-04 20:42 | 51.90173 | -54.18159 | 38865 ft | 503 kts | 241° |
| 2026-05-04 20:42 | 51.88697 | -54.23295 | 39177 ft | 504 kts | 241° |
| 2026-05-04 20:43 | 51.87214 | -54.28443 | 39278 ft | 502 kts | 241° |
| 2026-05-04 20:43 | 51.85748 | -54.33526 | 39275 ft | 498 kts | 241° |
| 2026-05-04 20:43 | 51.82812 | -54.43672 | 39271 ft | 499 kts | 241° |
| 2026-05-04 20:44 | 51.79767 | -54.53750 | 39268 ft | 497 kts | 238° |
| 2026-05-04 20:44 | 51.76232 | -54.63276 | 39252 ft | 494 kts | 234° |
| 2026-05-04 20:45 | 51.72624 | -54.72643 | 39236 ft | 494 kts | 234° |
| 2026-05-04 20:45 | 51.69031 | -54.82084 | 39230 ft | 493 kts | 234° |
| 2026-05-04 20:46 | 51.65443 | -54.91505 | 39228 ft | 493 kts | 235° |
| 2026-05-04 20:46 | 51.61852 | -55.00899 | 39223 ft | 493 kts | 235° |
| 2026-05-04 20:47 | 51.58275 | -55.10222 | 39221 ft | 493 kts | 235° |
| 2026-05-04 20:47 | 51.54663 | -55.19600 | 39230 ft | 493 kts | 234° |
| 2026-05-04 20:48 | 51.51036 | -55.28982 | 39217 ft | 495 kts | 235° |
| 2026-05-04 20:48 | 51.47399 | -55.38350 | 39216 ft | 495 kts | 235° |
| 2026-05-04 20:49 | 51.43768 | -55.47652 | 39212 ft | 495 kts | 235° |
| 2026-05-04 20:49 | 51.40104 | -55.57003 | 39207 ft | 495 kts | 234° |
| 2026-05-04 20:50 | 51.36431 | -55.66341 | 39212 ft | 495 kts | 234° |
| 2026-05-04 20:50 | 51.32777 | -55.75596 | 39207 ft | 495 kts | 235° |
| 2026-05-04 20:51 | 51.29101 | -55.84876 | 39203 ft | 494 kts | 235° |
| 2026-05-04 20:51 | 51.25423 | -55.94128 | 39194 ft | 493 kts | 235° |
| 2026-05-04 20:52 | 51.21745 | -56.03346 | 39188 ft | 492 kts | 234° |
| 2026-05-04 20:52 | 51.18069 | -56.12524 | 39191 ft | 491 kts | 235° |
| 2026-05-04 20:53 | 51.14414 | -56.21620 | 39182 ft | 490 kts | 235° |
| 2026-05-04 20:53 | 51.10731 | -56.30752 | 39178 ft | 490 kts | 235° |
| 2026-05-04 20:54 | 51.07043 | -56.39866 | 39178 ft | 490 kts | 234° |
| 2026-05-04 20:54 | 51.03352 | -56.48953 | 39178 ft | 490 kts | 234° |
| 2026-05-04 20:55 | 50.99670 | -56.57987 | 39170 ft | 491 kts | 234° |
| 2026-05-04 20:55 | 50.95952 | -56.67078 | 39176 ft | 491 kts | 234° |
| 2026-05-04 20:56 | 50.92221 | -56.76168 | 39183 ft | 492 kts | 234° |
| 2026-05-04 20:56 | 50.88483 | -56.85244 | 39191 ft | 492 kts | 234° |
| 2026-05-04 20:57 | 50.84733 | -56.94319 | 39193 ft | 493 kts | 234° |
| 2026-05-04 20:57 | 50.81000 | -57.03322 | 39197 ft | 493 kts | 234° |
| 2026-05-04 20:58 | 50.77234 | -57.12371 | 39196 ft | 492 kts | 234° |
| 2026-05-04 20:58 | 50.73469 | -57.21388 | 39199 ft | 492 kts | 234° |
| 2026-05-04 20:59 | 50.69690 | -57.30405 | 39211 ft | 492 kts | 234° |
| 2026-05-04 20:59 | 50.65939 | -57.39325 | 39207 ft | 491 kts | 234° |
| 2026-05-04 21:00 | 50.62158 | -57.48288 | 39217 ft | 491 kts | 234° |
| 2026-05-04 21:00 | 50.58375 | -57.57223 | 39230 ft | 490 kts | 234° |
| 2026-05-04 21:01 | 50.54585 | -57.66143 | 39230 ft | 490 kts | 234° |
| 2026-05-04 21:01 | 50.50816 | -57.74987 | 39219 ft | 490 kts | 234° |
| 2026-05-04 21:02 | 50.47015 | -57.83873 | 39218 ft | 490 kts | 234° |
| 2026-05-04 21:02 | 50.43214 | -57.92730 | 39241 ft | 490 kts | 234° |
| 2026-05-04 21:03 | 50.39402 | -58.01582 | 39256 ft | 489 kts | 234° |
| 2026-05-04 21:03 | 50.35610 | -58.10361 | 39254 ft | 489 kts | 234° |
| 2026-05-04 21:04 | 50.31788 | -58.19176 | 39246 ft | 490 kts | 234° |
| 2026-05-04 21:04 | 50.27954 | -58.27992 | 39259 ft | 490 kts | 234° |
| 2026-05-04 21:05 | 50.24113 | -58.36793 | 39272 ft | 490 kts | 234° |
| 2026-05-04 21:05 | 50.20297 | -58.45507 | 39281 ft | 489 kts | 234° |
| 2026-05-04 21:06 | 50.16459 | -58.54244 | 39263 ft | 488 kts | 234° |
| 2026-05-04 21:06 | 50.12617 | -58.62962 | 39267 ft | 487 kts | 234° |
| 2026-05-04 21:07 | 50.08772 | -58.71656 | 39290 ft | 487 kts | 234° |
| 2026-05-04 21:07 | 50.04951 | -58.80269 | 39271 ft | 486 kts | 234° |
| 2026-05-04 21:08 | 50.01104 | -58.88910 | 39275 ft | 486 kts | 234° |
| 2026-05-04 21:08 | 49.97245 | -58.97552 | 39267 ft | 487 kts | 234° |
| 2026-05-04 21:09 | 49.93376 | -59.06186 | 39284 ft | 487 kts | 234° |
| 2026-05-04 21:09 | 49.89528 | -59.14748 | 39287 ft | 487 kts | 234° |
| 2026-05-04 21:10 | 49.85647 | -59.23353 | 39286 ft | 487 kts | 234° |
| 2026-05-04 21:10 | 49.81763 | -59.31938 | 39295 ft | 487 kts | 234° |
| 2026-05-04 21:11 | 49.77872 | -59.40509 | 39311 ft | 486 kts | 234° |
| 2026-05-04 21:11 | 49.73986 | -59.49045 | 39310 ft | 485 kts | 234° |
| 2026-05-04 21:12 | 49.70125 | -59.57497 | 39310 ft | 484 kts | 233° |
| 2026-05-04 21:12 | 49.66235 | -59.65984 | 39301 ft | 484 kts | 233° |
| 2026-05-04 21:13 | 49.62349 | -59.74437 | 39319 ft | 482 kts | 233° |
| 2026-05-04 21:13 | 49.58466 | -59.82856 | 39309 ft | 481 kts | 233° |
| 2026-05-04 21:14 | 49.54611 | -59.91189 | 39299 ft | 480 kts | 233° |
| 2026-05-04 21:14 | 49.50730 | -59.99550 | 39304 ft | 480 kts | 233° |
| 2026-05-04 21:15 | 49.46851 | -60.07882 | 39314 ft | 479 kts | 233° |
| 2026-05-04 21:15 | 49.42963 | -60.16207 | 39319 ft | 479 kts | 233° |
| 2026-05-04 21:16 | 49.39096 | -60.24461 | 39340 ft | 479 kts | 233° |
| 2026-05-04 21:16 | 49.35202 | -60.32748 | 39338 ft | 479 kts | 233° |
| 2026-05-04 21:17 | 49.31292 | -60.41041 | 39342 ft | 480 kts | 233° |
| 2026-05-04 21:17 | 49.27373 | -60.49330 | 39341 ft | 480 kts | 233° |
| 2026-05-04 21:18 | 49.23475 | -60.57547 | 39354 ft | 481 kts | 233° |
| 2026-05-04 21:18 | 49.19538 | -60.65822 | 39364 ft | 481 kts | 233° |
| 2026-05-04 21:19 | 49.15594 | -60.74087 | 39372 ft | 481 kts | 233° |
| 2026-05-04 21:19 | 49.11642 | -60.82341 | 39388 ft | 481 kts | 233° |
| 2026-05-04 21:20 | 49.07689 | -60.90574 | 39401 ft | 481 kts | 233° |
| 2026-05-04 21:20 | 49.03758 | -60.98735 | 39396 ft | 480 kts | 233° |
| 2026-05-04 21:21 | 48.99804 | -61.06919 | 39440 ft | 478 kts | 233° |
| 2026-05-04 21:21 | 48.95858 | -61.15060 | 39436 ft | 477 kts | 233° |
| 2026-05-04 21:22 | 48.91916 | -61.23170 | 39424 ft | 476 kts | 233° |
| 2026-05-04 21:22 | 48.88000 | -61.31201 | 39424 ft | 475 kts | 233° |
| 2026-05-04 21:23 | 48.84060 | -61.39258 | 39433 ft | 474 kts | 233° |
| 2026-05-04 21:23 | 48.80132 | -61.47267 | 39424 ft | 473 kts | 233° |
| 2026-05-04 21:24 | 48.76201 | -61.55257 | 39421 ft | 473 kts | 233° |
| 2026-05-04 21:24 | 48.72299 | -61.63167 | 39424 ft | 472 kts | 233° |
| 2026-05-04 21:25 | 48.68370 | -61.71105 | 39435 ft | 471 kts | 232° |
| 2026-05-04 21:25 | 48.64438 | -61.79028 | 39444 ft | 471 kts | 232° |
| 2026-05-04 21:26 | 48.61161 | -61.85612 | 39446 ft | 472 kts | 232° |
| 2026-05-04 21:26 | 48.56569 | -61.94813 | 39478 ft | 472 kts | 232° |
| 2026-05-04 21:27 | 48.52601 | -62.02738 | 39464 ft | 474 kts | 232° |
| 2026-05-04 21:27 | 48.49288 | -62.09336 | 39482 ft | 476 kts | 232° |
| 2026-05-04 21:28 | 48.45280 | -62.17298 | 39497 ft | 477 kts | 232° |
| 2026-05-04 21:28 | 48.41253 | -62.25274 | 39523 ft | 479 kts | 232° |
| 2026-05-04 21:29 | 48.36551 | -62.34556 | 39521 ft | 481 kts | 232° |
| 2026-05-04 21:29 | 48.33174 | -62.41204 | 39527 ft | 481 kts | 232° |
| 2026-05-04 21:30 | 48.29105 | -62.49192 | 39538 ft | 482 kts | 232° |
| 2026-05-04 21:30 | 48.24359 | -62.58479 | 39553 ft | 482 kts | 232° |
| 2026-05-04 21:31 | 48.18902 | -62.69117 | 39581 ft | 480 kts | 232° |
| 2026-05-04 21:32 | 48.14860 | -62.76973 | 39564 ft | 478 kts | 232° |
| 2026-05-04 21:32 | 48.10797 | -62.84844 | 39554 ft | 477 kts | 232° |
| 2026-05-04 21:33 | 48.06083 | -62.93948 | 39564 ft | 476 kts | 232° |
| 2026-05-04 21:33 | 48.02693 | -63.00477 | 39558 ft | 474 kts | 232° |
| 2026-05-04 21:34 | 47.98673 | -63.08198 | 39557 ft | 473 kts | 232° |
| 2026-05-04 21:34 | 47.94628 | -63.15946 | 39559 ft | 472 kts | 232° |
| 2026-05-04 21:35 | 47.90586 | -63.23666 | 39562 ft | 472 kts | 232° |
| 2026-05-04 21:35 | 47.86547 | -63.31356 | 39553 ft | 471 kts | 232° |
| 2026-05-04 21:36 | 47.82502 | -63.39035 | 39549 ft | 471 kts | 232° |
| 2026-05-04 21:36 | 47.78480 | -63.46649 | 39553 ft | 471 kts | 232° |
| 2026-05-04 21:37 | 47.74424 | -63.54306 | 39551 ft | 472 kts | 232° |
| 2026-05-04 21:37 | 47.70354 | -63.61967 | 39559 ft | 473 kts | 232° |
| 2026-05-04 21:38 | 47.66274 | -63.69626 | 39573 ft | 474 kts | 232° |
| 2026-05-04 21:38 | 47.62200 | -63.77253 | 39584 ft | 475 kts | 232° |
| 2026-05-04 21:39 | 47.58088 | -63.84930 | 39588 ft | 476 kts | 232° |
| 2026-05-04 21:39 | 47.53962 | -63.92610 | 39600 ft | 477 kts | 232° |
| 2026-05-04 21:40 | 47.49820 | -64.00298 | 39609 ft | 478 kts | 232° |
| 2026-05-04 21:40 | 47.45670 | -64.07981 | 39611 ft | 478 kts | 232° |
| 2026-05-04 21:41 | 47.41540 | -64.15603 | 39613 ft | 478 kts | 232° |
| 2026-05-04 21:41 | 47.37387 | -64.23247 | 39627 ft | 478 kts | 232° |
| 2026-05-04 21:42 | 47.33223 | -64.30892 | 39620 ft | 478 kts | 232° |
| 2026-05-04 21:42 | 47.29054 | -64.38522 | 39629 ft | 478 kts | 232° |
| 2026-05-04 21:43 | 47.24910 | -64.46085 | 39628 ft | 477 kts | 232° |
| 2026-05-04 21:43 | 47.20736 | -64.53683 | 39627 ft | 477 kts | 232° |
| 2026-05-04 21:44 | 47.16558 | -64.61268 | 39630 ft | 477 kts | 232° |
| 2026-05-04 21:44 | 47.12380 | -64.68833 | 39619 ft | 477 kts | 232° |
| 2026-05-04 21:45 | 47.08219 | -64.76346 | 39629 ft | 477 kts | 232° |
| 2026-05-04 21:45 | 47.04027 | -64.83895 | 39628 ft | 477 kts | 232° |
| 2026-05-04 21:46 | 46.99831 | -64.91430 | 39624 ft | 477 kts | 232° |
| 2026-05-04 21:46 | 46.95658 | -64.98904 | 39631 ft | 477 kts | 232° |
| 2026-05-04 21:47 | 46.91457 | -65.06407 | 39642 ft | 476 kts | 232° |
| 2026-05-04 21:47 | 46.87252 | -65.13897 | 39639 ft | 476 kts | 232° |
| 2026-05-04 21:48 | 46.83049 | -65.21363 | 39651 ft | 476 kts | 232° |
| 2026-05-04 21:48 | 46.78835 | -65.28828 | 39635 ft | 476 kts | 232° |
| 2026-05-04 21:49 | 46.74652 | -65.36217 | 39657 ft | 475 kts | 232° |
| 2026-05-04 21:49 | 46.70445 | -65.43631 | 39663 ft | 474 kts | 232° |
| 2026-05-04 21:50 | 46.66239 | -65.51022 | 39665 ft | 473 kts | 232° |
| 2026-05-04 21:50 | 46.62036 | -65.58387 | 39660 ft | 473 kts | 232° |
| 2026-05-04 21:51 | 46.57863 | -65.65681 | 39671 ft | 472 kts | 232° |
| 2026-05-04 21:51 | 46.53662 | -65.73005 | 39668 ft | 471 kts | 232° |
| 2026-05-04 21:52 | 46.49465 | -65.80303 | 39679 ft | 471 kts | 232° |
| 2026-05-04 21:52 | 46.45260 | -65.87592 | 39685 ft | 471 kts | 232° |
| 2026-05-04 21:53 | 46.41053 | -65.94868 | 39687 ft | 471 kts | 232° |
| 2026-05-04 21:53 | 46.36875 | -66.02076 | 39686 ft | 471 kts | 232° |
| 2026-05-04 21:54 | 46.32659 | -66.09329 | 39686 ft | 471 kts | 232° |
| 2026-05-04 21:54 | 46.28437 | -66.16573 | 39690 ft | 471 kts | 232° |
| 2026-05-04 21:55 | 46.24233 | -66.23767 | 39698 ft | 472 kts | 232° |
| 2026-05-04 21:55 | 46.19993 | -66.31005 | 39709 ft | 472 kts | 232° |
| 2026-05-04 21:56 | 46.15751 | -66.38227 | 39714 ft | 472 kts | 232° |
| 2026-05-04 21:56 | 46.11497 | -66.45448 | 39737 ft | 472 kts | 232° |
| 2026-05-04 21:57 | 46.07238 | -66.52663 | 39736 ft | 472 kts | 231° |
| 2026-05-04 21:57 | 46.03008 | -66.59807 | 39725 ft | 472 kts | 231° |
| 2026-05-04 21:58 | 45.98742 | -66.66995 | 39737 ft | 472 kts | 231° |
| 2026-05-04 21:58 | 45.94477 | -66.74162 | 39747 ft | 471 kts | 232° |
| 2026-05-04 21:59 | 45.90241 | -66.81262 | 39751 ft | 471 kts | 231° |
| 2026-05-04 21:59 | 45.85982 | -66.88383 | 39754 ft | 470 kts | 231° |
| 2026-05-04 22:00 | 45.81719 | -66.95489 | 39759 ft | 469 kts | 232° |
| 2026-05-04 22:00 | 45.77464 | -67.02568 | 39768 ft | 468 kts | 231° |
| 2026-05-04 22:01 | 45.73236 | -67.09582 | 39757 ft | 468 kts | 231° |
| 2026-05-04 22:01 | 45.68983 | -67.16620 | 39754 ft | 468 kts | 231° |
| 2026-05-04 22:02 | 45.64727 | -67.23649 | 39773 ft | 467 kts | 231° |
| 2026-05-04 22:02 | 45.60473 | -67.30664 | 39773 ft | 467 kts | 231° |
| 2026-05-04 22:03 | 45.56216 | -67.37668 | 39769 ft | 467 kts | 231° |
| 2026-05-04 22:03 | 45.51955 | -67.44660 | 39763 ft | 467 kts | 231° |
| 2026-05-04 22:04 | 45.47724 | -67.51587 | 39778 ft | 466 kts | 231° |
| 2026-05-04 22:04 | 45.43459 | -67.58549 | 39775 ft | 466 kts | 231° |
| 2026-05-04 22:05 | 45.39197 | -67.65493 | 39772 ft | 466 kts | 231° |
| 2026-05-04 22:05 | 45.34703 | -67.72162 | 39783 ft | 466 kts | 228° |
| 2026-05-04 22:06 | 45.30027 | -67.78564 | 39786 ft | 467 kts | 225° |
| 2026-05-04 22:06 | 45.25058 | -67.84519 | 39782 ft | 468 kts | 223° |
| 2026-05-04 22:07 | 45.20120 | -67.90427 | 39765 ft | 467 kts | 223° |
| 2026-05-04 22:07 | 45.15154 | -67.96353 | 39772 ft | 467 kts | 223° |
| 2026-05-04 22:08 | 45.10179 | -68.02265 | 39775 ft | 467 kts | 223° |
| 2026-05-04 22:08 | 45.05193 | -68.08173 | 39779 ft | 468 kts | 223° |
| 2026-05-04 22:09 | 45.00235 | -68.14034 | 39785 ft | 468 kts | 223° |
| 2026-05-04 22:09 | 44.95236 | -68.19930 | 39788 ft | 468 kts | 223° |
| 2026-05-04 22:10 | 44.90232 | -68.25819 | 39791 ft | 468 kts | 223° |
| 2026-05-04 22:10 | 44.85224 | -68.31698 | 39790 ft | 468 kts | 223° |
| 2026-05-04 22:11 | 44.80222 | -68.37555 | 39803 ft | 468 kts | 223° |
| 2026-05-04 22:11 | 44.75249 | -68.43366 | 39801 ft | 467 kts | 223° |
| 2026-05-04 22:12 | 44.70244 | -68.49201 | 39791 ft | 467 kts | 223° |
| 2026-05-04 22:12 | 44.65241 | -68.55019 | 39788 ft | 466 kts | 223° |
| 2026-05-04 22:13 | 44.60247 | -68.60815 | 39784 ft | 466 kts | 223° |
| 2026-05-04 22:13 | 44.55246 | -68.66604 | 39780 ft | 466 kts | 223° |
| 2026-05-04 22:14 | 44.50280 | -68.72340 | 39788 ft | 465 kts | 223° |
| 2026-05-04 22:14 | 44.45284 | -68.78097 | 39790 ft | 465 kts | 223° |
| 2026-05-04 22:15 | 44.40278 | -68.83853 | 39792 ft | 465 kts | 223° |
| 2026-05-04 22:15 | 44.35278 | -68.89589 | 39791 ft | 465 kts | 223° |
| 2026-05-04 22:16 | 44.30306 | -68.95280 | 39785 ft | 465 kts | 223° |
| 2026-05-04 22:16 | 44.25303 | -69.00993 | 39793 ft | 465 kts | 223° |
| 2026-05-04 22:17 | 44.20290 | -69.06705 | 39785 ft | 465 kts | 223° |
| 2026-05-04 22:17 | 44.15276 | -69.12404 | 39797 ft | 465 kts | 223° |
| 2026-05-04 22:18 | 44.10258 | -69.18096 | 39790 ft | 465 kts | 223° |
| 2026-05-04 22:18 | 44.07788 | -69.20893 | 39626 ft | 463 kts | 223° |
| 2026-05-04 22:18 | 44.05301 | -69.23706 | 39225 ft | 461 kts | 223° |
| 2026-05-04 22:18 | 44.02820 | -69.26511 | 38703 ft | 459 kts | 223° |
| 2026-05-04 22:19 | 44.00350 | -69.29300 | 38140 ft | 456 kts | 223° |
| 2026-05-04 22:19 | 43.97894 | -69.32068 | 37497 ft | 453 kts | 223° |
| 2026-05-04 22:19 | 43.95454 | -69.34814 | 36902 ft | 452 kts | 224° |
| 2026-05-04 22:19 | 43.93006 | -69.37570 | 36344 ft | 455 kts | 224° |
| 2026-05-04 22:20 | 43.90532 | -69.40351 | 36011 ft | 461 kts | 224° |
| 2026-05-04 22:20 | 43.88054 | -69.43136 | 35677 ft | 466 kts | 224° |
| 2026-05-04 22:20 | 43.85523 | -69.45975 | 35393 ft | 469 kts | 224° |
| 2026-05-04 22:20 | 43.82990 | -69.48811 | 35112 ft | 469 kts | 224° |
| 2026-05-04 22:21 | 43.80446 | -69.51655 | 34782 ft | 470 kts | 224° |
| 2026-05-04 22:21 | 43.77900 | -69.54499 | 34463 ft | 470 kts | 225° |
| 2026-05-04 22:21 | 43.75320 | -69.57281 | 34134 ft | 472 kts | 221° |
| 2026-05-04 22:21 | 43.72523 | -69.59693 | 33799 ft | 476 kts | 214° |
| 2026-05-04 22:22 | 43.69513 | -69.61658 | 33407 ft | 481 kts | 207° |
| 2026-05-04 22:22 | 43.66333 | -69.63165 | 33018 ft | 484 kts | 203° |
| 2026-05-04 22:22 | 43.63134 | -69.64578 | 32634 ft | 482 kts | 204° |
| 2026-05-04 22:22 | 43.59959 | -69.66003 | 32257 ft | 480 kts | 204° |
| 2026-05-04 22:23 | 43.56824 | -69.67418 | 31810 ft | 479 kts | 204° |
| 2026-05-04 22:23 | 43.53669 | -69.68843 | 31311 ft | 477 kts | 204° |
| 2026-05-04 22:23 | 43.50531 | -69.70257 | 30856 ft | 471 kts | 204° |
| 2026-05-04 22:23 | 43.47430 | -69.71652 | 30396 ft | 467 kts | 204° |
| 2026-05-04 22:24 | 43.44346 | -69.73038 | 29958 ft | 466 kts | 204° |
| 2026-05-04 22:24 | 43.41267 | -69.74421 | 29143 ft | 466 kts | 204° |
| 2026-05-04 22:24 | 43.38174 | -69.75812 | 28136 ft | 470 kts | 204° |
| 2026-05-04 22:24 | 43.35075 | -69.77202 | 27307 ft | 468 kts | 204° |
| 2026-05-04 22:25 | 43.32007 | -69.78570 | 26805 ft | 458 kts | 204° |
| 2026-05-04 22:25 | 43.29059 | -69.79880 | 26472 ft | 445 kts | 204° |
| 2026-05-04 22:25 | 43.26128 | -69.81186 | 25986 ft | 438 kts | 204° |
| 2026-05-04 22:25 | 43.23259 | -69.82464 | 25845 ft | 432 kts | 204° |
| 2026-05-04 22:26 | 43.20395 | -69.83741 | 25834 ft | 434 kts | 204° |
| 2026-05-04 22:26 | 43.17526 | -69.85020 | 25838 ft | 432 kts | 204° |
| 2026-05-04 22:26 | 43.14672 | -69.86288 | 25844 ft | 431 kts | 204° |
| 2026-05-04 22:26 | 43.11816 | -69.87558 | 25841 ft | 432 kts | 204° |
| 2026-05-04 22:27 | 43.08992 | -69.88812 | 25838 ft | 432 kts | 204° |
| 2026-05-04 22:27 | 43.06096 | -69.90096 | 25840 ft | 432 kts | 204° |
| 2026-05-04 22:27 | 43.03282 | -69.91343 | 25846 ft | 432 kts | 204° |
| 2026-05-04 22:27 | 43.00422 | -69.92608 | 25843 ft | 432 kts | 204° |
| 2026-05-04 22:28 | 42.97560 | -69.93874 | 25846 ft | 432 kts | 204° |
| 2026-05-04 22:28 | 42.94697 | -69.95139 | 25836 ft | 432 kts | 204° |
| 2026-05-04 22:28 | 42.91838 | -69.96402 | 25615 ft | 431 kts | 204° |
| 2026-05-04 22:28 | 42.88996 | -69.97657 | 25107 ft | 430 kts | 204° |
| 2026-05-04 22:29 | 42.86151 | -69.98913 | 24367 ft | 430 kts | 204° |
| 2026-05-04 22:29 | 42.83304 | -70.00169 | 23618 ft | 430 kts | 203° |
| 2026-05-04 22:29 | 42.80499 | -70.01406 | 22813 ft | 429 kts | 203° |
| 2026-05-04 22:29 | 42.77663 | -70.02652 | 21967 ft | 427 kts | 203° |
| 2026-05-04 22:30 | 42.74841 | -70.03895 | 21120 ft | 425 kts | 204° |
| 2026-05-04 22:30 | 42.72070 | -70.05226 | 20122 ft | 421 kts | 205° |
| 2026-05-04 22:30 | 42.69349 | -70.06597 | 19237 ft | 413 kts | 205° |
| 2026-05-04 22:30 | 42.66774 | -70.08142 | 18391 ft | 396 kts | 217° |
| 2026-05-04 22:31 | 42.64674 | -70.10417 | 17461 ft | 379 kts | 232° |
| 2026-05-04 22:31 | 42.63215 | -70.13294 | 16606 ft | 363 kts | 248° |
| 2026-05-04 22:31 | 42.62230 | -70.16376 | 15992 ft | 348 kts | 250° |
| 2026-05-04 22:31 | 42.61314 | -70.19348 | 15438 ft | 336 kts | 250° |
| 2026-05-04 22:32 | 42.60525 | -70.22267 | 14836 ft | 324 kts | 257° |
| 2026-05-04 22:32 | 42.60070 | -70.25167 | 14288 ft | 313 kts | 264° |
| 2026-05-04 22:32 | 42.59901 | -70.28066 | 13758 ft | 304 kts | 268° |
| 2026-05-04 22:32 | 42.59797 | -70.30893 | 13206 ft | 295 kts | 268° |
| 2026-05-04 22:33 | 42.59672 | -70.33630 | 12677 ft | 287 kts | 267° |
| 2026-05-04 22:33 | 42.59543 | -70.36299 | 12137 ft | 280 kts | 268° |
| 2026-05-04 22:33 | 42.59417 | -70.38896 | 11662 ft | 272 kts | 268° |
| 2026-05-04 22:33 | 42.59291 | -70.41424 | 11181 ft | 265 kts | 268° |
| 2026-05-04 22:34 | 42.59157 | -70.43884 | 10707 ft | 258 kts | 268° |
| 2026-05-04 22:34 | 42.59019 | -70.46284 | 10235 ft | 252 kts | 268° |
| 2026-05-04 22:34 | 42.58879 | -70.48592 | 9774 ft | 246 kts | 268° |
| 2026-05-04 22:34 | 42.58735 | -70.50883 | 9269 ft | 241 kts | 268° |
| 2026-05-04 22:35 | 42.58601 | -70.53121 | 8792 ft | 235 kts | 268° |
| 2026-05-04 22:35 | 42.58481 | -70.55297 | 8349 ft | 229 kts | 267° |
| 2026-05-04 22:35 | 42.58384 | -70.57424 | 7910 ft | 223 kts | 268° |
| 2026-05-04 22:35 | 42.58302 | -70.59507 | 7560 ft | 219 kts | 268° |
| 2026-05-04 22:36 | 42.58233 | -70.61575 | 7224 ft | 220 kts | 268° |
| 2026-05-04 22:36 | 42.58174 | -70.63623 | 6903 ft | 220 kts | 268° |
| 2026-05-04 22:36 | 42.58126 | -70.65700 | 6569 ft | 221 kts | 268° |
| 2026-05-04 22:36 | 42.58086 | -70.67795 | 6220 ft | 223 kts | 268° |
| 2026-05-04 22:37 | 42.58052 | -70.69903 | 5836 ft | 224 kts | 268° |
| 2026-05-04 22:37 | 42.58026 | -70.72020 | 5451 ft | 225 kts | 268° |
| 2026-05-04 22:37 | 42.58001 | -70.74136 | 5199 ft | 222 kts | 268° |
| 2026-05-04 22:37 | 42.57981 | -70.76207 | 4986 ft | 217 kts | 268° |
| 2026-05-04 22:38 | 42.57966 | -70.78240 | 4789 ft | 214 kts | 268° |
| 2026-05-04 22:38 | 42.57958 | -70.80247 | 4607 ft | 212 kts | 268° |
| 2026-05-04 22:38 | 42.57947 | -70.82219 | 4463 ft | 211 kts | 268° |
| 2026-05-04 22:38 | 42.57895 | -70.84171 | 4310 ft | 203 kts | 256° |
| 2026-05-04 22:39 | 42.57266 | -70.85829 | 4203 ft | 198 kts | 236° |
| 2026-05-04 22:39 | 42.56456 | -70.87324 | 4030 ft | 194 kts | 236° |
| 2026-05-04 22:39 | 42.55677 | -70.88774 | 3853 ft | 188 kts | 236° |
| 2026-05-04 22:39 | 42.54936 | -70.90145 | 3629 ft | 172 kts | 236° |
| 2026-05-04 22:40 | 42.54216 | -70.91348 | 3428 ft | 161 kts | 227° |
| 2026-05-04 22:40 | 42.53305 | -70.92230 | 3250 ft | 164 kts | 213° |
| 2026-05-04 22:40 | 42.52245 | -70.92860 | 3063 ft | 168 kts | 206° |
| 2026-05-04 22:40 | 42.51150 | -70.93392 | 2827 ft | 166 kts | 205° |
| 2026-05-04 22:41 | 42.50112 | -70.93900 | 2639 ft | 157 kts | 206° |
| 2026-05-04 22:41 | 42.49096 | -70.94393 | 2427 ft | 154 kts | 206° |
| 2026-05-04 22:41 | 42.48084 | -70.94891 | 2221 ft | 153 kts | 206° |
| 2026-05-04 22:41 | 42.47085 | -70.95370 | 2023 ft | 154 kts | 206° |
| 2026-05-04 22:42 | 42.46131 | -70.95830 | 1828 ft | 136 kts | 207° |
| 2026-05-04 22:42 | 42.45255 | -70.96255 | 1664 ft | 131 kts | 206° |
| 2026-05-04 22:42 | 42.44405 | -70.96670 | 1481 ft | 129 kts | 208° |
| 2026-05-04 22:42 | 42.43557 | -70.97086 | 1307 ft | 131 kts | 207° |
| 2026-05-04 22:43 | 42.42679 | -70.97501 | 1124 ft | 133 kts | 205° |
| 2026-05-04 22:43 | 42.41816 | -70.97928 | 954 ft | 132 kts | 205° |
| 2026-05-04 22:43 | 42.40969 | -70.98341 | 775 ft | 129 kts | 204° |
| 2026-05-04 22:43 | 42.40119 | -70.98754 | 609 ft | 126 kts | 201° |
| 2026-05-04 22:44 | 42.39316 | -70.99137 | 460 ft | 123 kts | 203° |
| 2026-05-04 22:44 | 42.38524 | -70.99528 | 280 ft | 123 kts | 201° |
| 2026-05-04 22:44 | 42.37715 | -70.99918 | 135 ft | 120 kts | 204° |
| 2026-05-04 22:44 | 42.36919 | -71.00306 | 34 ft | 112 kts | 201° |
| 2026-05-04 22:45 | 42.36332 | -71.00592 | 30 ft | 69 kts | 200° |
| 2026-05-04 22:45 | 42.35768 | -71.00862 | 30 ft | 25 kts | 199° |
| 2026-05-04 22:45 | 42.35634 | -71.00928 | 30 ft | 21 kts | 200° |
| 2026-05-04 22:46 | 42.35501 | -71.00993 | 30 ft | 21 kts | 199° |
| 2026-05-04 22:46 | 42.35356 | -71.01064 | 30 ft | 19 kts | 200° |
| 2026-05-04 22:46 | 42.35232 | -71.01125 | 30 ft | 16 kts | 200° |
| 2026-05-04 22:46 | 42.35194 | -71.01192 | 30 ft | 7 kts | 291° |
| 2026-05-04 22:47 | 42.35231 | -71.01266 | 30 ft | 9 kts | 306° |
| 2026-05-04 22:47 | 42.35268 | -71.01334 | 31 ft | 6 kts | 306° |
| 2026-05-04 22:47 | 42.35295 | -71.01385 | 30 ft | 7 kts | 306° |
| 2026-05-04 22:47 | 42.35323 | -71.01433 | 30 ft | 3 kts | 338° |
| 2026-05-04 22:48 | 42.35365 | -71.01425 | 30 ft | 14 kts | 19° |
| 2026-05-04 22:48 | 42.35478 | -71.01370 | 30 ft | 15 kts | 20° |
| 2026-05-04 22:48 | 42.35586 | -71.01322 | 30 ft | 14 kts | 9° |
| 2026-05-04 22:48 | 42.35697 | -71.01289 | 30 ft | 19 kts | 19° |
| 2026-05-04 22:49 | 42.35812 | -71.01236 | 30 ft | 15 kts | 19° |
| 2026-05-04 22:49 | 42.35887 | -71.01199 | 30 ft | 12 kts | 21° |
| 2026-05-04 22:49 | 42.35982 | -71.01151 | 30 ft | 17 kts | 19° |
| 2026-05-04 22:49 | 42.36096 | -71.01097 | 30 ft | 18 kts | 19° |
| 2026-05-04 22:50 | 42.36160 | -71.01067 | 30 ft | 9 kts | 19° |
| 2026-05-04 22:50 | 42.36223 | -71.01057 | 30 ft | 9 kts | 324° |
| 2026-05-04 22:50 | 42.36265 | -71.01155 | 30 ft | 14 kts | 296° |
| 2026-05-04 22:50 | 42.36307 | -71.01254 | 30 ft | 9 kts | 301° |
| 2026-05-04 22:51 | 42.36347 | -71.01319 | 31 ft | 7 kts | 351° |
| 2026-05-04 22:51 | 42.36401 | -71.01303 | 31 ft | 7 kts | 20° |
| 2026-05-04 22:51 | 42.36444 | -71.01282 | 31 ft | 0 kts | 20° |
| 2026-05-04 22:51 | 42.36451 | -71.01279 | 31 ft | 2 kts | 20° |
| 2026-05-04 22:52 | 42.36470 | -71.01269 | 31 ft | 1 kts | 20° |
| 2026-05-04 22:52 | 42.36486 | -71.01261 | 31 ft | 4 kts | 20° |
| 2026-05-04 22:52 | 42.36524 | -71.01243 | 31 ft | 8 kts | 20° |
| 2026-05-04 22:52 | 42.36594 | -71.01209 | 31 ft | 14 kts | 19° |
| 2026-05-04 22:53 | 42.36686 | -71.01165 | 31 ft | 15 kts | 19° |
| 2026-05-04 22:53 | 42.36760 | -71.01139 | 31 ft | 12 kts | 357° |
| 2026-05-04 22:53 | 42.36835 | -71.01207 | 31 ft | 13 kts | 315° |
| 2026-05-04 22:53 | 42.36855 | -71.01233 | 31 ft | 6 kts | 316° |
| 2026-05-04 22:54 | 42.36873 | -71.01245 | 31 ft | 1 kts | 14° |
| 2026-05-04 22:54 | 42.36894 | -71.01221 | 31 ft | 9 kts | 47° |
| 2026-05-04 22:54 | 42.36932 | -71.01174 | 31 ft | 7 kts | 21° |
| 2026-05-04 22:54 | 42.36973 | -71.01182 | 30 ft | 7 kts | 321° |
| 2026-05-04 22:55 | 42.37022 | -71.01249 | 30 ft | 12 kts | 314° |
| 2026-05-04 22:55 | 42.37084 | -71.01334 | 30 ft | 14 kts | 314° |
| 2026-05-04 22:55 | 42.37124 | -71.01388 | 30 ft | 1 kts | 315° |
| 2026-05-04 22:55 | 42.37154 | -71.01428 | 30 ft | 12 kts | 315° |
| 2026-05-04 22:56 | 42.37219 | -71.01515 | 30 ft | 13 kts | 315° |
| 2026-05-04 22:56 | 42.37268 | -71.01580 | 30 ft | 1 kts | 315° |
| 2026-05-04 22:56 | 42.37294 | -71.01615 | 30 ft | 7 kts | 315° |
| 2026-05-04 22:56 | 42.37324 | -71.01656 | 30 ft | 5 kts | 315° |
| 2026-05-04 22:57 | 42.37343 | -71.01681 | 30 ft | 1 kts | 315° |
| 2026-05-04 22:57 | 42.37356 | -71.01698 | 30 ft | 3 kts | 315° |
| 2026-05-04 22:57 | 42.37369 | -71.01716 | 30 ft | 1 kts | 315° |
| 2026-05-04 22:57 | 42.37374 | -71.01721 | 30 ft | 0 kts | 315° |
| 2026-05-04 22:58 | 42.37374 | -71.01722 | 30 ft | 0 kts | 315° |
| 2026-05-04 22:58 | 42.37400 | -71.01764 | 30 ft | 5 kts | 281° |
| 2026-05-04 22:59 | 42.37388 | -71.01814 | 30 ft | 6 kts | 232° |
| 2026-05-04 22:59 | 42.37362 | -71.01853 | 30 ft | 5 kts | 214° |
| 2026-05-04 22:59 | 42.37338 | -71.01870 | 30 ft | 2 kts | 201° |
| 2026-05-04 22:59 | 42.37316 | -71.01881 | 30 ft | 4 kts | 201° |
| 2026-05-04 23:00 | 42.37277 | -71.01905 | 30 ft | 6 kts | 207° |
| 2026-05-04 23:00 | 42.37243 | -71.01936 | 30 ft | 6 kts | 225° |
| 2026-05-04 23:00 | 42.37231 | -71.01992 | 30 ft | 7 kts | 279° |
| 2026-05-04 23:00 | 42.37237 | -71.02056 | 30 ft | 7 kts | 263° |
| 2026-05-04 23:01 | 42.37219 | -71.02090 | 30 ft | 3 kts | 197° |
| 2026-05-04 23:01 | 42.37198 | -71.02093 | 35 ft | 1 kts | 175° |
| 2026-05-04 23:01 | 42.37179 | -71.02091 | 30 ft | 3 kts | 175° |
| 2026-05-04 23:01 | 42.37163 | -71.02089 | 31 ft | 1 kts | 176° |
| 2026-05-04 23:02 | 42.37162 | -71.02089 | 30 ft | 0 kts | 176° |
| 2026-05-04 23:02 | 42.37160 | -71.02089 | 31 ft | 0 kts | 176° |
| 2026-05-04 23:02 | 42.37148 | -71.02088 | 30 ft | 0 kts | 176° |